Chany, Russia
Current Conditions -  °F | °C
As of 7:00 AM on Saturday 29 Nov 2014 (Local Time) from UNOO Reporting Station
Broken Clouds Broken Clouds  
Wind Chill: -28°   Ceiling: 20000
Heat Index: -13°   Visibility: 5mi
Dew Point: -20°   Wind: 7mph
Humidity: 70%   Direction: 160°SSE
Pressure: 30.68"   Gusts: NA
Location:  55.31°N, 76.75°E
Report Text: UNOO 290000Z 16003MPS 8000 SCT066 BKN200 M25/M29 Q1039 25810550NOSIG RMK QFE771
Loading
Personal Weather Stations






























Interactive Weather Map New forecast layout! Learn more

10-Day Weather Forecast

Advertisements
Track Severe Weather on mobile